Flight Track Log - Related Links

Times and Time Zones

All times are in EST time to prevent confusion due to time zone crossing. See the TAM3129 flight status page for this flight to view local times or setup timezone preferences in your user account.

Time Position Orientation Groundspeed Altitude Reporting Facility
EST Latitude Longitude Course Direction KTS MPH feet Rate Location/Type
Tue 03:33:00 AM -20.9758 -41.5816 239° Southwest  Level Estimated
Tue 03:34:00 AM -21.0177 -41.6581 240° Southwest  Level Estimated
Tue 03:35:00 AM -21.0596 -41.7347 240° Southwest  Level Estimated
Tue 03:36:00 AM -21.1014 -41.8114 240° Southwest  Level Estimated
Tue 03:37:00 AM -21.1432 -41.8881 240° Southwest  Level Estimated
Tue 03:38:00 AM -21.1850 -41.9648 240° Southwest  Level Estimated
Tue 03:39:00 AM -21.2267 -42.0416 240° Southwest  Level Estimated
Tue 03:40:00 AM -21.2685 -42.1185 240° Southwest  Level Estimated
Tue 03:41:00 AM -21.3101 -42.1953 240° Southwest  Level Estimated
Tue 03:42:00 AM -21.3518 -42.2722 240° Southwest  Level Estimated
Tue 03:43:00 AM -21.3934 -42.3492 240° Southwest  Level Estimated
Tue 03:44:00 AM -21.4349 -42.4262 240° Southwest  Level Estimated
Tue 03:45:00 AM -21.4843 -42.5178 240° Southwest  Level Estimated
Tue 03:46:00 AM -21.5336 -42.6094 240° Southwest  Level Estimated
Tue 03:47:00 AM -21.5828 -42.7011 240° Southwest  Level Estimated
Tue 03:48:00 AM -21.6320 -42.7928 240° Southwest  Level Estimated
Tue 03:49:00 AM -21.6812 -42.8847 240° Southwest  Level Estimated
Tue 03:50:00 AM -21.7303 -42.9765 240° Southwest  Level Estimated
Tue 03:51:00 AM -21.7793 -43.0685 240° Southwest  Level Estimated
Tue 03:52:00 AM -21.8283 -43.1605 240° Southwest  Level Estimated
Tue 03:53:00 AM -21.8773 -43.2525 240° Southwest  Level Estimated
Tue 03:54:00 AM -21.9262 -43.3447 240° Southwest  Level Estimated
Tue 03:55:00 AM -21.9750 -43.4369 240° Southwest  Level Estimated
Tue 03:56:00 AM -22.0238 -43.5291 240° Southwest  Level Estimated
Tue 03:57:00 AM -22.0726 -43.6214 240° Southwest  Level Estimated
Tue 03:58:00 AM -22.1213 -43.7138 240° Southwest  Level Estimated
Tue 03:59:00 AM -22.1699 -43.8063 240° Southwest  Level Estimated
Tue 04:00:00 AM -22.2185 -43.8988 240° Southwest  Level Estimated
Tue 04:01:00 AM -22.2670 -43.9914 240° Southwest  Level Estimated
Tue 04:02:00 AM -22.3155 -44.0840 240° Southwest  Level Estimated
Tue 04:03:00 AM -22.3640 -44.1767 241° Southwest  Level Estimated
Tue 04:04:00 AM -22.4123 -44.2695 241° Southwest  Level Estimated
Tue 04:05:00 AM -22.4607 -44.3623 241° Southwest  Level Estimated
Tue 04:06:00 AM -22.5089 -44.4552 241° Southwest  Level Estimated
Tue 04:07:00 AM -22.5572 -44.5482 241° Southwest  Level Estimated
Tue 04:08:00 AM -22.6053 -44.6412 241° Southwest  Level Estimated
Tue 04:09:00 AM -22.6534 -44.7343 241° Southwest  Level Estimated
Tue 04:10:00 AM -22.7015 -44.8275 241° Southwest  Level Estimated
Tue 04:11:00 AM -22.7495 -44.9207 241° Southwest  Level Estimated
Tue 04:12:00 AM -22.7974 -45.0140 241° Southwest  Level Estimated
Tue 04:13:00 AM -22.8454 -45.1073 241° Southwest  Level Estimated
Tue 04:14:00 AM -22.8932 -45.2008 241° Southwest  Level Estimated
Tue 04:15:00 AM -22.9410 -45.2943 241° Southwest  Level Estimated
Tue 04:16:00 AM -22.9887 -45.3878 241° Southwest  Level Estimated
Tue 04:17:00 AM -23.0364 -45.4814 241° Southwest  Level Estimated
Tue 04:18:00 AM -23.0840 -45.5751 241° Southwest  Level Estimated
Tue 04:19:00 AM -23.1316 -45.6689 241° Southwest  Level Estimated
Tue 04:20:00 AM -23.1791 -45.7627 241° Southwest  Level Estimated
Tue 04:21:00 AM -23.2265 -45.8566 241° Southwest  Level Estimated
Tue 04:22:00 AM -23.2740 -45.9505 241° Southwest  Level Estimated
Tue 04:23:00 AM -23.3213 -46.0445 241° Southwest  Level Estimated
Tue 04:24:00 AM -23.3686 -46.1386 241° Southwest  Level Estimated
Tue 04:25:00 AM -23.4158 -46.2328 241° Southwest  Level Estimated
Tue 04:26:00 AM -23.4630 -46.3270 241° Southwest  Level Estimated
Tue 04:27:00 AM -23.5101 -46.4213 241° Southwest  Level Estimated
Tue 04:28:00 AM -23.5572 -46.5156 241° Southwest  Level Estimated
Tue 04:29:00 AM -23.6042 -46.6101 241° Southwest  Level Estimated
Tue 04:30:00 AM -23.6267 -46.6554 242° Southwest  Level Estimated
Tue 04:31:00 AM -23.6267 -46.6554 114° Southeast  Level Estimated
Tue 04:32:00 AM -23.6267 -46.6554 114° Southeast  Level Estimated
Tue 04:33:00 AM -23.6267 -46.6554 114° Southeast  Level Estimated
Tue 04:34:00 AM -23.6267 -46.6554 114° Southeast  Level Estimated
Tue 04:35:00 AM -23.6267 -46.6554 114° Southeast  Level Estimated
Tue 04:36:00 AM -23.6267 -46.6554 114° Southeast  Level Estimated
Tue 04:37:00 AM -23.6267 -46.6554 114° Southeast  Level Estimated
Tue 04:38:00 AM -23.6267 -46.6554 114° Southeast  Level Estimated
Tue 04:39:00 AM -23.6267 -46.6554 114° Southeast  Level Estimated
Tue 04:40:00 AM -23.6267 -46.6554 114° Southeast  Level Estimated
Tue 04:41:00 AM -23.6267 -46.6554 114° Southeast  Level Estimated

Login

Don't have an account? Register now (free) for customized features, flight alerts, and more!